createdAt,value
2023-02-03T00:01:39.432Z,97652.97
2023-02-03T00:04:07.574Z,97652.25
2023-02-03T00:06:36.008Z,97653.75
2023-02-03T00:09:04.748Z,97648.53
2023-02-03T00:11:33.996Z,97649.44
2023-02-03T00:14:02.246Z,97653.41
2023-02-03T00:16:31.604Z,97638.47
2023-02-03T00:18:59.899Z,97633.69
2023-02-03T00:21:28.135Z,97630.41
2023-02-03T00:23:56.249Z,97626.97
2023-02-03T00:26:26.253Z,97618.06
2023-02-03T00:28:54.217Z,97612.75
2023-02-03T00:31:25.502Z,97615.50
2023-02-03T00:33:59.371Z,97618.06
2023-02-03T00:36:28.538Z,97618.38
2023-02-03T00:38:56.822Z,97618.69
2023-02-03T00:41:25.012Z,97615.41
2023-02-03T00:43:53.362Z,97605.91
2023-02-03T00:46:21.535Z,97613.22
2023-02-03T00:48:49.811Z,97605.63
2023-02-03T00:51:19.484Z,97606.91
2023-02-03T00:53:48.665Z,97594.53
2023-02-03T00:56:16.745Z,97598.00
2023-02-03T00:58:45.777Z,97593.34
2023-02-03T01:01:13.997Z,97578.25
2023-02-03T01:03:42.241Z,97574.03
2023-02-03T01:06:14.043Z,97570.38
2023-02-03T01:08:44.016Z,97573.59
2023-02-03T01:11:14.176Z,97576.31
2023-02-03T01:13:42.769Z,97566.09
2023-02-03T01:16:12.326Z,97567.88
2023-02-03T01:18:41.405Z,97564.09
2023-02-03T01:21:13.840Z,97560.66
2023-02-03T01:23:44.110Z,97544.63
2023-02-03T01:26:14.333Z,97538.00
2023-02-03T01:28:43.247Z,97534.25
2023-02-03T01:31:14.740Z,97519.72
2023-02-03T01:33:46.415Z,97519.16
2023-02-03T01:36:15.437Z,97505.75
2023-02-03T01:38:45.750Z,97511.91
2023-02-03T01:41:17.634Z,97496.84
2023-02-03T01:43:49.167Z,97491.66
2023-02-03T01:46:28.924Z,97487.75
2023-02-03T01:49:05.424Z,97472.84
2023-02-03T01:51:34.513Z,97474.81
2023-02-03T01:54:04.538Z,97457.72
2023-02-03T01:56:40.456Z,97445.84
2023-02-03T01:59:09.714Z,97443.44
2023-02-03T02:01:38.795Z,97447.81
2023-02-03T02:04:08.108Z,97460.16
2023-02-03T02:06:36.556Z,97467.69
2023-02-03T02:09:06.528Z,97464.34
2023-02-03T02:11:34.808Z,97457.25
2023-02-03T02:14:04.038Z,97458.09
2023-02-03T02:16:44.238Z,97445.25
2023-02-03T02:19:45.996Z,97449.06
2023-02-03T02:22:21.667Z,97443.28
2023-02-03T02:25:26.851Z,97444.22
2023-02-03T02:28:26.830Z,97430.81
2023-02-03T02:31:24.290Z,97418.22
2023-02-03T02:34:02.526Z,97419.38
2023-02-03T02:36:40.610Z,97408.56
2023-02-03T02:39:15.830Z,97404.28
2023-02-03T02:41:49.037Z,97402.09
2023-02-03T02:44:22.618Z,97401.66
2023-02-03T02:46:55.188Z,97392.72
2023-02-03T02:49:30.530Z,97383.41
2023-02-03T02:52:01.811Z,97375.31
2023-02-03T02:54:33.055Z,97367.84
2023-02-03T02:57:04.771Z,97365.91
2023-02-03T02:59:33.968Z,97363.25
2023-02-03T03:02:02.331Z,97361.69
2023-02-03T03:04:35.311Z,97367.38
2023-02-03T03:07:09.655Z,97367.38
2023-02-03T03:09:44.016Z,97360.06
2023-02-03T03:12:16.389Z,97353.38
2023-02-03T03:14:51.373Z,97332.06
2023-02-03T03:17:26.526Z,97333.13
2023-02-03T03:19:58.946Z,97326.94
2023-02-03T03:22:34.751Z,97326.03
2023-02-03T03:25:09.870Z,97316.44
2023-02-03T03:27:40.783Z,97320.91
2023-02-03T03:30:14.107Z,97324.44
2023-02-03T03:32:42.720Z,97316.88
2023-02-03T03:35:12.865Z,97306.19
2023-02-03T03:37:45.584Z,97305.13
2023-02-03T03:40:20.106Z,97303.09
2023-02-03T03:42:52.782Z,97300.69
2023-02-03T03:45:26.715Z,97308.63
2023-02-03T03:47:58.555Z,97307.13
2023-02-03T03:50:33.742Z,97307.13
2023-02-03T03:53:04.322Z,97300.91
2023-02-03T03:55:36.500Z,97301.16
2023-02-03T03:58:09.080Z,97285.97
2023-02-03T04:00:40.106Z,97275.78
2023-02-03T04:03:15.081Z,97284.44
2023-02-03T04:05:45.706Z,97281.13
2023-02-03T04:08:14.166Z,97274.63
2023-02-03T04:10:44.168Z,97265.63
2023-02-03T04:13:16.086Z,97268.13
2023-02-03T04:15:44.488Z,97251.88
2023-02-03T04:18:14.966Z,97243.50
2023-02-03T04:20:45.416Z,97239.78
2023-02-03T04:23:13.566Z,97239.22
2023-02-03T04:25:41.660Z,97223.53
2023-02-03T04:28:10.513Z,97211.38
2023-02-03T04:30:38.953Z,97215.53
2023-02-03T04:33:07.180Z,97201.75
2023-02-03T04:35:35.460Z,97197.72
2023-02-03T04:38:05.080Z,97194.72
2023-02-03T04:40:35.011Z,97187.97
2023-02-03T04:43:08.468Z,97177.72
2023-02-03T04:45:36.891Z,97175.44
2023-02-03T04:48:05.876Z,97183.63
2023-02-03T04:50:34.152Z,97170.50
2023-02-03T04:53:02.256Z,97159.66
2023-02-03T04:55:31.868Z,97158.53
2023-02-03T04:58:01.586Z,97155.00
2023-02-03T05:00:30.824Z,97152.88
2023-02-03T05:02:59.276Z,97153.50
2023-02-03T05:05:28.025Z,97149.41
2023-02-03T05:07:56.269Z,97161.81
2023-02-03T05:10:25.011Z,97150.53
2023-02-03T05:12:54.540Z,97154.09
2023-02-03T05:15:22.683Z,97146.16
2023-02-03T05:17:53.015Z,97144.41
2023-02-03T05:20:21.922Z,97139.97
2023-02-03T05:22:50.677Z,97129.47
2023-02-03T05:25:19.282Z,97133.63
2023-02-03T05:27:47.560Z,97125.84
2023-02-03T05:30:17.446Z,97136.22
2023-02-03T05:32:45.777Z,97133.44
2023-02-03T05:35:14.041Z,97119.06
2023-02-03T05:37:42.374Z,97109.22
2023-02-03T05:40:29.159Z,97093.84
2023-02-03T05:42:57.570Z,97092.81
2023-02-03T05:45:27.408Z,97086.09
2023-02-03T05:47:55.818Z,97086.09
2023-02-03T05:50:24.566Z,97100.88
2023-02-03T05:52:53.534Z,97097.25
2023-02-03T05:55:21.656Z,97094.03
2023-02-03T05:57:49.986Z,97103.66
2023-02-03T06:00:18.833Z,97111.97
2023-02-03T06:02:52.954Z,97113.16
2023-02-03T06:05:21.235Z,97111.66
2023-02-03T06:07:49.853Z,97118.25
2023-02-03T06:10:18.699Z,97123.66
2023-02-03T06:12:47.115Z,97111.56
2023-02-03T06:15:16.339Z,97118.81
2023-02-03T06:17:45.816Z,97111.44
2023-02-03T06:20:17.999Z,97101.63
2023-02-03T06:22:46.681Z,97102.41
2023-02-03T06:25:14.892Z,97091.84
2023-02-03T06:27:43.678Z,97080.13
2023-02-03T06:30:13.696Z,97075.03
2023-02-03T06:32:42.165Z,97068.72
2023-02-03T06:35:11.086Z,97069.28
2023-02-03T06:37:41.487Z,97058.88
2023-02-03T06:40:11.332Z,97061.03
2023-02-03T06:42:40.077Z,97051.25
2023-02-03T06:45:10.095Z,97054.75
2023-02-03T06:47:41.449Z,97048.97
2023-02-03T06:50:11.447Z,97039.81
2023-02-03T06:52:46.361Z,97057.50
2023-02-03T06:55:15.387Z,97040.78
2023-02-03T06:57:48.270Z,97044.63
2023-02-03T07:00:19.331Z,97045.38
2023-02-03T07:02:48.555Z,97030.09
2023-02-03T07:05:17.558Z,97032.16
2023-02-03T07:07:47.569Z,97018.75
2023-02-03T07:10:16.273Z,97016.31
2023-02-03T07:12:44.640Z,97018.78
2023-02-03T07:15:13.684Z,97012.13
2023-02-03T07:17:42.326Z,97015.06
2023-02-03T07:20:12.273Z,97000.78
2023-02-03T07:22:42.776Z,96994.88
2023-02-03T07:25:12.360Z,96988.03
2023-02-03T07:27:41.214Z,96973.47
2023-02-03T07:30:11.083Z,96967.56
2023-02-03T07:32:39.749Z,96974.13
2023-02-03T07:35:08.773Z,96960.59
2023-02-03T07:37:37.018Z,96962.34
2023-02-03T07:40:05.972Z,96970.44
2023-02-03T07:42:35.789Z,96970.13
2023-02-03T07:45:04.560Z,96965.09
2023-02-03T07:47:33.126Z,96972.09
2023-02-03T07:50:01.599Z,96971.53
2023-02-03T07:52:30.349Z,96960.59
2023-02-03T07:54:58.482Z,96954.75
2023-02-03T07:57:27.067Z,96955.97
2023-02-03T07:59:56.830Z,96953.09
2023-02-03T08:02:25.415Z,96944.50
2023-02-03T08:04:53.708Z,96940.50
2023-02-03T08:07:22.339Z,96934.44
2023-02-03T08:09:51.029Z,96946.63
2023-02-03T08:12:19.713Z,96935.09
2023-02-03T08:14:48.489Z,96939.75
2023-02-03T08:17:18.486Z,96923.41
2023-02-03T08:19:46.825Z,96928.38
2023-02-03T08:22:16.846Z,96917.78
2023-02-03T08:24:46.182Z,96926.00
2023-02-03T08:27:15.107Z,96935.50
2023-02-03T08:29:43.686Z,96927.16
2023-02-03T08:32:13.350Z,96926.59
2023-02-03T08:34:43.327Z,96934.09
2023-02-03T08:37:13.069Z,96924.94
2023-02-03T08:39:41.851Z,96930.09
2023-02-03T08:42:10.675Z,96931.66
2023-02-03T08:44:39.655Z,96934.66
2023-02-03T08:47:09.065Z,96930.34
2023-02-03T08:49:40.527Z,96922.59
2023-02-03T08:52:13.395Z,96914.16
2023-02-03T08:54:41.734Z,96900.38
2023-02-03T08:57:11.034Z,96917.72
2023-02-03T08:59:42.168Z,96902.13
2023-02-03T09:02:15.184Z,96903.09
2023-02-03T09:04:43.886Z,96895.84
2023-02-03T09:07:15.689Z,96876.94
2023-02-03T09:09:46.459Z,96873.81
2023-02-03T09:12:14.825Z,96889.31
2023-02-03T09:14:43.361Z,96873.19
2023-02-03T09:17:12.431Z,96870.16
2023-02-03T09:19:41.309Z,96865.16
2023-02-03T09:22:09.929Z,96864.41
2023-02-03T09:24:39.859Z,96858.81
2023-02-03T09:27:08.614Z,96856.03
2023-02-03T09:29:37.043Z,96841.47
2023-02-03T09:32:09.021Z,96833.03
2023-02-03T09:34:37.864Z,96833.69
2023-02-03T09:37:06.080Z,96834.00
2023-02-03T09:39:34.867Z,96834.41
2023-02-03T09:42:38.853Z,96817.47
2023-02-03T09:45:18.964Z,96797.88
2023-02-03T09:47:54.176Z,96783.13
2023-02-03T09:50:26.155Z,96794.88
2023-02-03T09:52:55.410Z,96796.69
2023-02-03T09:55:31.208Z,96784.13
2023-02-03T09:58:05.489Z,96777.50
2023-02-03T10:00:37.884Z,96791.72
2023-02-03T10:03:14.644Z,96764.13
2023-02-03T10:05:53.830Z,96761.53
2023-02-03T10:08:35.149Z,96768.09
2023-02-03T10:11:12.105Z,96735.81
2023-02-03T10:13:55.131Z,96727.50
2023-02-03T10:16:37.276Z,96735.34
2023-02-03T10:19:12.681Z,96728.69
2023-02-03T10:21:45.750Z,96707.97
2023-02-03T10:24:18.374Z,96700.22
2023-02-03T10:26:47.689Z,96693.13
2023-02-03T10:29:21.857Z,96712.88
2023-02-03T10:31:50.930Z,96696.63
2023-02-03T10:34:20.675Z,96683.25
2023-02-03T10:36:57.669Z,96682.19
2023-02-03T10:39:36.627Z,96678.22
2023-02-03T10:42:06.495Z,96669.94
2023-02-03T10:44:51.050Z,96664.47
2023-02-03T10:47:26.286Z,96663.53
2023-02-03T10:49:58.425Z,96673.06
2023-02-03T10:52:32.233Z,96650.94
2023-02-03T10:55:02.673Z,96631.25
2023-02-03T10:57:32.816Z,96635.00
2023-02-03T11:00:24.215Z,96627.78
2023-02-03T11:03:05.467Z,96634.69
2023-02-03T11:05:36.722Z,96631.44
2023-02-03T11:08:05.915Z,96620.50
2023-02-03T11:10:36.928Z,96629.81
2023-02-03T11:13:20.445Z,96600.09
2023-02-03T11:15:57.105Z,96587.28
2023-02-03T11:18:53.706Z,96578.84
2023-02-03T11:21:24.760Z,96597.47
2023-02-03T11:24:04.433Z,96589.03
2023-02-03T11:26:37.660Z,96591.84
2023-02-03T11:29:08.641Z,96584.56
2023-02-03T11:31:38.853Z,96574.72
2023-02-03T11:34:29.489Z,96571.56
2023-02-03T11:37:11.263Z,96567.00
2023-02-03T11:39:40.073Z,96573.78
2023-02-03T11:42:23.908Z,96566.28
2023-02-03T11:44:52.472Z,96574.53
2023-02-03T11:47:23.860Z,96548.03
2023-02-03T11:50:26.152Z,96540.03
2023-02-03T11:53:13.693Z,96537.13
2023-02-03T11:55:53.716Z,96534.69
2023-02-03T11:58:50.227Z,96516.16
2023-02-03T12:01:35.611Z,96517.28
2023-02-03T12:04:34.189Z,96460.31
2023-02-03T12:07:23.672Z,96460.31
2023-02-03T12:10:01.463Z,96440.72
2023-02-03T12:12:46.139Z,96440.84
2023-02-03T12:15:28.476Z,96447.44
2023-02-03T12:18:13.149Z,96455.38
2023-02-03T12:20:56.789Z,96459.41
2023-02-03T12:23:41.145Z,96483.75
2023-02-03T12:26:21.729Z,96467.09
2023-02-03T12:29:01.718Z,96474.81
2023-02-03T12:31:39.207Z,96498.16
2023-02-03T12:34:17.112Z,96496.84
2023-02-03T12:36:53.543Z,96491.19
2023-02-03T12:39:29.988Z,96494.72
2023-02-03T12:42:04.788Z,96472.06
2023-02-03T12:44:41.949Z,96493.63
2023-02-03T12:47:19.621Z,96483.47
2023-02-03T12:49:55.597Z,96477.97
2023-02-03T12:52:30.004Z,96482.00
2023-02-03T12:55:08.382Z,96497.16
2023-02-03T12:57:42.184Z,96477.19
2023-02-03T13:00:27.045Z,96467.84
2023-02-03T13:03:10.495Z,96438.75
2023-02-03T13:05:44.879Z,96432.66
2023-02-03T13:08:23.494Z,96404.88
2023-02-03T13:10:59.034Z,96404.44
2023-02-03T13:13:36.852Z,96428.13
2023-02-03T13:16:10.472Z,96425.50
2023-02-03T13:18:42.539Z,96404.94
2023-02-03T13:21:12.601Z,96437.00
2023-02-03T13:23:45.595Z,96482.75
2023-02-03T13:26:44.082Z,96582.09
2023-02-03T13:29:26.842Z,96612.88
2023-02-03T13:32:12.078Z,96593.31
2023-02-03T13:34:53.434Z,96593.78
2023-02-03T13:37:45.548Z,96579.75
2023-02-03T13:40:27.221Z,96582.41
2023-02-03T13:42:58.459Z,96584.41
2023-02-03T13:45:29.897Z,96568.81
2023-02-03T13:48:09.564Z,96572.75
2023-02-03T13:50:38.876Z,96551.53
2023-02-03T13:53:09.301Z,96554.78
2023-02-03T13:55:41.650Z,96567.34
2023-02-03T13:58:22.013Z,96568.47
2023-02-03T14:01:07.089Z,96574.22
2023-02-03T14:03:45.100Z,96585.41
2023-02-03T14:06:59.936Z,96561.34
2023-02-03T14:09:42.522Z,96556.31
2023-02-03T14:12:21.864Z,96548.06
2023-02-03T14:15:05.234Z,96559.78
2023-02-03T14:18:06.114Z,96563.06
2023-02-03T14:20:51.383Z,96564.34
2023-02-03T14:23:24.839Z,96564.53
2023-02-03T14:25:57.390Z,96573.00
2023-02-03T14:28:33.344Z,96582.34
2023-02-03T14:31:12.805Z,96586.19
2023-02-03T14:34:06.292Z,96596.88
2023-02-03T14:36:42.643Z,96595.56
2023-02-03T14:39:56.418Z,96581.72
2023-02-03T14:43:09.536Z,96605.81
2023-02-03T14:46:08.485Z,96589.09
2023-02-03T14:48:53.621Z,96610.50
2023-02-03T14:51:42.126Z,96610.78
2023-02-03T14:54:38.831Z,96601.69
2023-02-03T14:57:20.194Z,96612.56
2023-02-03T14:59:52.765Z,96619.13
2023-02-03T15:02:26.603Z,96614.31
2023-02-03T15:05:33.666Z,96625.78
2023-02-03T15:08:03.557Z,96625.00
2023-02-03T15:10:43.555Z,96655.97
2023-02-03T15:13:26.088Z,96647.19
2023-02-03T15:15:56.607Z,96670.81
2023-02-03T15:18:32.210Z,96664.72
2023-02-03T15:21:02.704Z,96679.66
2023-02-03T15:23:38.790Z,96676.28
2023-02-03T15:26:15.210Z,96693.41
2023-02-03T15:28:43.580Z,96706.56
2023-02-03T15:31:21.576Z,96690.94
2023-02-03T15:33:54.225Z,96683.50
2023-02-03T15:36:28.776Z,96697.69
2023-02-03T15:39:06.655Z,96700.88
2023-02-03T15:41:35.773Z,96698.56
2023-02-03T15:44:09.218Z,96703.44
2023-02-03T15:46:42.165Z,96689.19
2023-02-03T15:49:18.204Z,96678.16
2023-02-03T15:51:50.691Z,96677.69
2023-02-03T15:54:24.462Z,96686.28
2023-02-03T15:57:01.633Z,96692.97
2023-02-03T15:59:35.183Z,96714.59
2023-02-03T16:02:14.608Z,96738.13
2023-02-03T16:04:44.861Z,96767.44
2023-02-03T16:07:20.619Z,96736.94
2023-02-03T16:09:49.014Z,96736.56
2023-02-03T16:12:23.461Z,96741.41
2023-02-03T16:14:54.957Z,96740.06
2023-02-03T16:17:31.680Z,96732.44
2023-02-03T16:20:23.398Z,96736.06
2023-02-03T16:23:04.531Z,96737.75
2023-02-03T16:25:35.273Z,96748.41
2023-02-03T16:28:32.426Z,96727.66
2023-02-03T16:31:21.768Z,96738.97
2023-02-03T16:34:09.223Z,96732.84
2023-02-03T16:37:01.277Z,96723.03
2023-02-03T16:39:47.644Z,96731.59
2023-02-03T16:42:36.032Z,96734.53
2023-02-03T16:45:23.310Z,96736.94
2023-02-03T16:48:09.242Z,96735.13
2023-02-03T16:50:53.883Z,96733.09
2023-02-03T16:53:24.865Z,96743.81
2023-02-03T16:55:55.357Z,96758.13
2023-02-03T16:58:23.736Z,96750.31
2023-02-03T17:00:53.781Z,96754.06
2023-02-03T17:03:24.378Z,96751.28
2023-02-03T17:05:53.190Z,96760.66
2023-02-03T17:08:25.515Z,96759.66
2023-02-03T17:10:54.565Z,96756.38
2023-02-03T17:13:24.503Z,96766.09
2023-02-03T17:15:53.674Z,96760.69
2023-02-03T17:18:22.665Z,96755.47
2023-02-03T17:20:50.793Z,96753.06
2023-02-03T17:23:19.546Z,96747.56
2023-02-03T17:25:50.778Z,96752.38
2023-02-03T17:28:19.616Z,96757.09
2023-02-03T17:30:57.266Z,96746.38
2023-02-03T17:33:25.842Z,96740.50
2023-02-03T17:36:03.037Z,96736.38
2023-02-03T17:38:31.727Z,96738.25
2023-02-03T17:54:57.765Z,96768.91
2023-02-03T17:57:27.420Z,96758.91
2023-02-03T17:59:56.806Z,96771.97
2023-02-03T18:02:24.860Z,96772.22
2023-02-03T18:04:53.309Z,96756.28
2023-02-03T18:07:21.954Z,96754.25
2023-02-03T18:09:50.150Z,96759.25
2023-02-03T18:12:18.821Z,96762.81
2023-02-03T18:14:49.469Z,96752.28
2023-02-03T18:17:17.515Z,96756.44
2023-02-03T18:19:49.246Z,96759.78
2023-02-03T18:22:23.842Z,96752.88
2023-02-03T18:24:52.503Z,96764.06
2023-02-03T18:27:21.281Z,96777.06
2023-02-03T18:29:51.689Z,96777.97
2023-02-03T18:32:20.082Z,96779.34
2023-02-03T18:34:48.330Z,96794.78
2023-02-03T18:37:16.460Z,96786.22
2023-02-03T18:39:45.376Z,96786.22
2023-02-03T18:42:14.192Z,96779.47
2023-02-03T18:44:44.199Z,96799.13
2023-02-03T18:47:13.951Z,96804.47
2023-02-03T18:49:42.336Z,96819.09
2023-02-03T18:52:10.353Z,96819.38
2023-02-03T18:54:39.047Z,96828.34
2023-02-03T18:57:10.018Z,96811.50
2023-02-03T18:59:38.454Z,96802.72
2023-02-03T19:02:07.840Z,96824.53
2023-02-03T19:04:37.677Z,96799.66
2023-02-03T19:07:06.268Z,96812.34
2023-02-03T19:09:34.766Z,96812.94
2023-02-03T19:12:04.280Z,96809.56
2023-02-03T19:14:32.997Z,96819.72
2023-02-03T19:17:01.457Z,96809.00
2023-02-03T19:19:30.411Z,96808.03
2023-02-03T19:22:00.003Z,96818.63
2023-02-03T19:24:28.541Z,96820.75
2023-02-03T19:26:56.904Z,96818.00
2023-02-03T19:29:24.994Z,96822.91
2023-02-03T19:31:53.784Z,96826.16
2023-02-03T19:34:22.332Z,96816.59
2023-02-03T19:36:52.617Z,96825.75
2023-02-03T19:39:22.205Z,96817.25
2023-02-03T19:41:50.428Z,96838.03
2023-02-03T19:44:18.714Z,96828.19
2023-02-03T19:46:47.229Z,96831.91
2023-02-03T19:49:15.574Z,96839.31
2023-02-03T19:51:45.760Z,96844.66
2023-02-03T19:54:15.797Z,96829.38
2023-02-03T19:56:45.628Z,96830.56
2023-02-03T19:59:13.953Z,96853.69
2023-02-03T20:01:42.469Z,96837.06
2023-02-03T20:04:36.399Z,96836.31
2023-02-03T20:07:04.856Z,96838.13
2023-02-03T20:09:33.538Z,96853.41
2023-02-03T20:12:03.544Z,96847.31
2023-02-03T20:14:32.791Z,96852.41
2023-02-03T20:17:00.918Z,96836.41
2023-02-03T20:19:28.988Z,96838.53
2023-02-03T20:21:57.594Z,96848.06
2023-02-03T20:24:26.237Z,96837.50
2023-02-03T20:26:54.915Z,96858.97
2023-02-03T20:29:24.630Z,96853.00
2023-02-03T20:31:54.849Z,96851.38
2023-02-03T20:34:23.294Z,96842.47
2023-02-03T20:36:51.656Z,96846.78
2023-02-03T20:39:21.319Z,96845.44
2023-02-03T20:41:49.953Z,96842.97
2023-02-03T20:44:18.372Z,96855.69
2023-02-03T20:46:47.880Z,96853.03
2023-02-03T20:49:18.070Z,96844.72
2023-02-03T20:51:46.807Z,96844.81
2023-02-03T20:54:17.768Z,96847.38
2023-02-03T20:56:46.640Z,96851.88
2023-02-03T20:59:18.001Z,96855.63
2023-02-03T21:01:49.379Z,96848.88
2023-02-03T21:04:37.985Z,96841.91
2023-02-03T21:07:14.211Z,96832.19
2023-02-03T21:09:42.646Z,96835.31
2023-02-03T21:12:13.239Z,96840.25
2023-02-03T21:14:43.932Z,96834.16
2023-02-03T21:17:22.443Z,96834.63
2023-02-03T21:19:51.398Z,96837.50
2023-02-03T21:22:23.237Z,96836.97
2023-02-03T21:24:54.367Z,96836.69
2023-02-03T21:27:28.912Z,96845.72
2023-02-03T21:29:58.677Z,96854.34
2023-02-03T21:32:38.271Z,96832.88
2023-02-03T21:35:24.122Z,96834.72
2023-02-03T21:38:01.823Z,96839.81
2023-02-03T21:40:32.409Z,96850.25
2023-02-03T21:43:03.422Z,96845.03
2023-02-03T21:45:42.404Z,96851.50
2023-02-03T21:48:39.971Z,96850.50
2023-02-03T21:51:16.897Z,96854.84
2023-02-03T21:53:52.496Z,96860.19
2023-02-03T21:56:22.581Z,96858.19
2023-02-03T21:58:51.973Z,96876.38
2023-02-03T22:01:26.226Z,96853.66
2023-02-03T22:03:59.096Z,96864.91
2023-02-03T22:06:29.400Z,96869.13
2023-02-03T22:08:59.033Z,96866.13
2023-02-03T22:11:29.133Z,96872.25
2023-02-03T22:13:57.896Z,96868.53
2023-02-03T22:16:26.972Z,96881.53
2023-02-03T22:18:57.201Z,96876.78
2023-02-03T22:21:25.320Z,96883.53
2023-02-03T22:23:53.565Z,96882.69
2023-02-03T22:26:22.354Z,96913.78
2023-02-03T22:28:51.242Z,96885.50
2023-02-03T22:31:19.924Z,96891.66
2023-02-03T22:33:48.440Z,96893.63
2023-02-03T22:36:18.370Z,96884.00
2023-02-03T22:38:46.756Z,96891.75
2023-02-03T22:41:16.718Z,96899.50
2023-02-03T22:43:44.908Z,96896.78
2023-02-03T22:46:13.384Z,96892.50
2023-02-03T22:48:41.548Z,96896.09
2023-02-03T22:51:13.470Z,96895.56
2023-02-03T22:53:43.805Z,96885.19
2023-02-03T22:56:11.903Z,96884.34
2023-02-03T22:58:40.506Z,96901.72
2023-02-03T23:01:08.525Z,96890.22
2023-02-03T23:03:36.956Z,96906.44
2023-02-03T23:06:05.396Z,96912.03
2023-02-03T23:08:33.511Z,96905.97
2023-02-03T23:11:03.421Z,96905.69
2023-02-03T23:13:31.526Z,96909.88
2023-02-03T23:15:59.871Z,96916.22
2023-02-03T23:18:28.109Z,96911.84
2023-02-03T23:20:56.216Z,96923.13
2023-02-03T23:23:24.728Z,96917.72
2023-02-03T23:25:53.316Z,96917.47
2023-02-03T23:28:23.020Z,96922.44
2023-02-03T23:30:51.407Z,96931.91
2023-02-03T23:33:19.558Z,96933.78
2023-02-03T23:35:46.762Z,96934.88
2023-02-03T23:38:15.579Z,96924.66
2023-02-03T23:40:45.711Z,96929.38
2023-02-03T23:43:14.085Z,96935.88
2023-02-03T23:45:43.768Z,96936.34
2023-02-03T23:48:12.624Z,96945.50
2023-02-03T23:50:41.281Z,96937.00
2023-02-03T23:53:09.594Z,96960.41
2023-02-03T23:55:38.260Z,96989.31
2023-02-03T23:58:06.838Z,96998.25
